sensor_id;sensor_type;location;lat;lon;timestamp;pressure;altitude;pressure_sealevel;temperature;humidity
550;BME280;20066;48.764;9.176;2023-02-24T00:02:14;97746.91;;;13.57;65.34
550;BME280;20066;48.764;9.176;2023-02-24T00:04:45;97745.56;;;13.45;66.27
550;BME280;20066;48.764;9.176;2023-02-24T00:07:18;97747.59;;;13.61;65.61
550;BME280;20066;48.764;9.176;2023-02-24T00:09:46;97750.13;;;13.05;66.65
550;BME280;20066;48.764;9.176;2023-02-24T00:12:15;97745.41;;;13.33;66.79
550;BME280;20066;48.764;9.176;2023-02-24T00:14:44;97742.19;;;13.61;65.40
550;BME280;20066;48.764;9.176;2023-02-24T00:17:12;97746.06;;;13.60;64.83
550;BME280;20066;48.764;9.176;2023-02-24T00:19:41;97750.69;;;13.83;64.63
550;BME280;20066;48.764;9.176;2023-02-24T00:22:09;97745.75;;;13.98;63.86
550;BME280;20066;48.764;9.176;2023-02-24T00:24:39;97745.28;;;13.83;63.69
550;BME280;20066;48.764;9.176;2023-02-24T00:27:07;97744.25;;;13.53;65.65
550;BME280;20066;48.764;9.176;2023-02-24T00:29:37;97737.66;;;13.35;66.46
550;BME280;20066;48.764;9.176;2023-02-24T00:32:07;97739.41;;;12.98;67.71
550;BME280;20066;48.764;9.176;2023-02-24T00:34:38;97736.03;;;12.91;68.69
550;BME280;20066;48.764;9.176;2023-02-24T00:37:06;97736.88;;;13.34;66.39
550;BME280;20066;48.764;9.176;2023-02-24T00:39:35;97734.53;;;13.36;66.67
550;BME280;20066;48.764;9.176;2023-02-24T00:42:09;97733.19;;;13.25;67.21
550;BME280;20066;48.764;9.176;2023-02-24T00:44:39;97727.16;;;13.17;67.70
550;BME280;20066;48.764;9.176;2023-02-24T00:47:08;97731.50;;;12.84;67.92
550;BME280;20066;48.764;9.176;2023-02-24T00:49:38;97730.25;;;13.16;66.70
550;BME280;20066;48.764;9.176;2023-02-24T00:52:08;97730.59;;;12.94;68.13
550;BME280;20066;48.764;9.176;2023-02-24T00:54:39;97725.22;;;12.94;67.38
550;BME280;20066;48.764;9.176;2023-02-24T00:57:09;97727.28;;;13.10;67.97
550;BME280;20066;48.764;9.176;2023-02-24T00:59:38;97730.50;;;13.25;67.25
550;BME280;20066;48.764;9.176;2023-02-24T01:02:06;97721.56;;;11.93;73.00
550;BME280;20066;48.764;9.176;2023-02-24T01:04:34;97720.75;;;12.57;69.61
550;BME280;20066;48.764;9.176;2023-02-24T01:07:04;97717.22;;;12.60;70.44
550;BME280;20066;48.764;9.176;2023-02-24T01:09:38;97717.16;;;13.14;67.74
550;BME280;20066;48.764;9.176;2023-02-24T01:12:08;97722.03;;;12.46;70.54
550;BME280;20066;48.764;9.176;2023-02-24T01:14:54;97719.63;;;12.55;70.65
550;BME280;20066;48.764;9.176;2023-02-24T01:17:22;97710.06;;;12.50;71.16
550;BME280;20066;48.764;9.176;2023-02-24T01:19:51;97709.25;;;11.96;72.24
550;BME280;20066;48.764;9.176;2023-02-24T01:22:20;97703.97;;;12.16;72.18
550;BME280;20066;48.764;9.176;2023-02-24T01:24:49;97702.53;;;11.36;76.61
550;BME280;20066;48.764;9.176;2023-02-24T01:27:18;97700.38;;;11.95;73.39
550;BME280;20066;48.764;9.176;2023-02-24T01:29:47;97699.13;;;10.91;76.96
550;BME280;20066;48.764;9.176;2023-02-24T01:32:16;97694.25;;;11.20;77.04
550;BME280;20066;48.764;9.176;2023-02-24T01:34:46;97699.81;;;11.40;76.63
550;BME280;20066;48.764;9.176;2023-02-24T01:37:14;97695.09;;;11.88;73.65
550;BME280;20066;48.764;9.176;2023-02-24T01:39:42;97690.34;;;11.66;74.82
550;BME280;20066;48.764;9.176;2023-02-24T01:42:12;97689.88;;;10.92;78.28
550;BME280;20066;48.764;9.176;2023-02-24T01:45:06;97689.16;;;11.29;76.31
550;BME280;20066;48.764;9.176;2023-02-24T01:47:39;97688.06;;;11.64;75.64
550;BME280;20066;48.764;9.176;2023-02-24T01:50:09;97687.50;;;11.42;77.34
550;BME280;20066;48.764;9.176;2023-02-24T01:52:42;97679.88;;;11.71;76.10
550;BME280;20066;48.764;9.176;2023-02-24T01:55:13;97681.75;;;10.99;77.58
550;BME280;20066;48.764;9.176;2023-02-24T01:57:47;97678.75;;;10.90;78.92
550;BME280;20066;48.764;9.176;2023-02-24T02:00:18;97687.81;;;11.10;78.63
550;BME280;20066;48.764;9.176;2023-02-24T02:03:01;97685.06;;;10.73;78.88
550;BME280;20066;48.764;9.176;2023-02-24T02:05:33;97681.91;;;11.22;77.31
550;BME280;20066;48.764;9.176;2023-02-24T02:08:02;97685.84;;;11.14;76.41
550;BME280;20066;48.764;9.176;2023-02-24T02:10:30;97681.81;;;11.33;75.29
550;BME280;20066;48.764;9.176;2023-02-24T02:12:59;97678.59;;;11.11;76.60
550;BME280;20066;48.764;9.176;2023-02-24T02:15:34;97678.91;;;11.88;74.18
550;BME280;20066;48.764;9.176;2023-02-24T02:18:09;97671.38;;;11.39;74.46
550;BME280;20066;48.764;9.176;2023-02-24T02:20:55;97663.59;;;11.10;75.78
550;BME280;20066;48.764;9.176;2023-02-24T02:23:44;97664.78;;;11.06;76.07
550;BME280;20066;48.764;9.176;2023-02-24T02:29:51;97659.28;;;11.54;73.47
550;BME280;20066;48.764;9.176;2023-02-24T02:35:53;97663.47;;;11.21;75.21
550;BME280;20066;48.764;9.176;2023-02-24T02:38:29;97659.38;;;11.43;75.68
550;BME280;20066;48.764;9.176;2023-02-24T02:41:06;97649.00;;;11.79;72.11
550;BME280;20066;48.764;9.176;2023-02-24T02:43:40;97648.91;;;12.13;71.21
550;BME280;20066;48.764;9.176;2023-02-24T02:46:12;97646.97;;;12.14;71.96
550;BME280;20066;48.764;9.176;2023-02-24T02:48:47;97638.34;;;11.69;72.51
550;BME280;20066;48.764;9.176;2023-02-24T02:51:20;97637.72;;;11.54;73.24
550;BME280;20066;48.764;9.176;2023-02-24T02:53:57;97635.03;;;11.88;72.37
550;BME280;20066;48.764;9.176;2023-02-24T02:56:31;97637.47;;;12.06;71.29
550;BME280;20066;48.764;9.176;2023-02-24T02:59:01;97625.47;;;12.60;68.41
550;BME280;20066;48.764;9.176;2023-02-24T03:01:35;97630.16;;;12.33;68.80
550;BME280;20066;48.764;9.176;2023-02-24T03:04:06;97622.59;;;12.48;67.86
550;BME280;20066;48.764;9.176;2023-02-24T03:06:40;97624.66;;;12.40;69.93
550;BME280;20066;48.764;9.176;2023-02-24T03:09:13;97621.00;;;12.00;70.14
550;BME280;20066;48.764;9.176;2023-02-24T03:11:47;97620.81;;;11.87;71.72
550;BME280;20066;48.764;9.176;2023-02-24T03:14:22;97615.53;;;12.30;70.55
550;BME280;20066;48.764;9.176;2023-02-24T03:16:53;97608.84;;;10.87;75.76
550;BME280;20066;48.764;9.176;2023-02-24T03:19:27;97609.72;;;11.14;76.67
550;BME280;20066;48.764;9.176;2023-02-24T03:22:03;97611.78;;;10.99;76.30
550;BME280;20066;48.764;9.176;2023-02-24T03:24:34;97606.59;;;11.83;74.37
550;BME280;20066;48.764;9.176;2023-02-24T03:27:07;97599.38;;;11.77;73.61
550;BME280;20066;48.764;9.176;2023-02-24T03:29:40;97599.59;;;12.16;70.69
550;BME280;20066;48.764;9.176;2023-02-24T03:32:12;97599.06;;;11.98;70.73
550;BME280;20066;48.764;9.176;2023-02-24T03:34:48;97593.75;;;12.45;70.39
550;BME280;20066;48.764;9.176;2023-02-24T03:37:20;97597.66;;;12.87;67.94
550;BME280;20066;48.764;9.176;2023-02-24T03:39:52;97597.16;;;11.72;71.80
550;BME280;20066;48.764;9.176;2023-02-24T03:42:24;97599.28;;;12.11;70.14
550;BME280;20066;48.764;9.176;2023-02-24T03:44:55;97597.63;;;12.67;68.53
550;BME280;20066;48.764;9.176;2023-02-24T03:47:25;97599.13;;;12.45;68.75
550;BME280;20066;48.764;9.176;2023-02-24T03:49:52;97606.66;;;13.03;65.85
550;BME280;20066;48.764;9.176;2023-02-24T03:52:29;97598.28;;;13.18;65.68
550;BME280;20066;48.764;9.176;2023-02-24T03:55:15;97598.38;;;13.34;64.18
550;BME280;20066;48.764;9.176;2023-02-24T03:57:53;97598.38;;;12.91;65.99
550;BME280;20066;48.764;9.176;2023-02-24T04:00:29;97599.47;;;12.50;67.42
550;BME280;20066;48.764;9.176;2023-02-24T04:03:05;97598.47;;;12.84;66.56
550;BME280;20066;48.764;9.176;2023-02-24T04:05:41;97599.47;;;12.23;68.84
550;BME280;20066;48.764;9.176;2023-02-24T04:08:15;97597.47;;;12.04;69.51
550;BME280;20066;48.764;9.176;2023-02-24T04:10:49;97600.88;;;11.47;72.71
550;BME280;20066;48.764;9.176;2023-02-24T04:13:27;97602.56;;;12.22;69.79
550;BME280;20066;48.764;9.176;2023-02-24T04:16:05;97598.59;;;12.30;69.81
550;BME280;20066;48.764;9.176;2023-02-24T04:18:37;97603.19;;;12.33;69.05
550;BME280;20066;48.764;9.176;2023-02-24T04:21:07;97608.44;;;12.44;68.94
550;BME280;20066;48.764;9.176;2023-02-24T04:23:39;97605.22;;;11.38;73.05
550;BME280;20066;48.764;9.176;2023-02-24T04:26:10;97596.34;;;11.41;72.93
550;BME280;20066;48.764;9.176;2023-02-24T04:28:39;97598.88;;;11.51;73.62
550;BME280;20066;48.764;9.176;2023-02-24T04:31:11;97596.53;;;11.23;73.56
550;BME280;20066;48.764;9.176;2023-02-24T04:33:44;97596.66;;;11.80;70.86
550;BME280;20066;48.764;9.176;2023-02-24T04:36:16;97586.38;;;11.38;72.27
550;BME280;20066;48.764;9.176;2023-02-24T04:38:45;97589.47;;;11.36;72.54
550;BME280;20066;48.764;9.176;2023-02-24T04:41:14;97585.66;;;10.59;75.45
550;BME280;20066;48.764;9.176;2023-02-24T04:43:47;97582.69;;;10.46;76.61
550;BME280;20066;48.764;9.176;2023-02-24T04:46:16;97584.13;;;11.33;73.84
550;BME280;20066;48.764;9.176;2023-02-24T04:48:44;97569.63;;;10.48;78.12
550;BME280;20066;48.764;9.176;2023-02-24T04:51:12;97572.72;;;10.88;76.57
550;BME280;20066;48.764;9.176;2023-02-24T04:53:40;97570.03;;;11.52;73.17
550;BME280;20066;48.764;9.176;2023-02-24T04:56:09;97570.13;;;11.45;74.56
550;BME280;20066;48.764;9.176;2023-02-24T04:58:38;97561.03;;;11.01;76.31
550;BME280;20066;48.764;9.176;2023-02-24T05:01:09;97562.66;;;10.95;74.87
550;BME280;20066;48.764;9.176;2023-02-24T05:03:38;97558.00;;;11.64;71.76
550;BME280;20066;48.764;9.176;2023-02-24T05:06:13;97552.81;;;11.46;72.93
550;BME280;20066;48.764;9.176;2023-02-24T05:08:41;97557.91;;;11.37;73.36
550;BME280;20066;48.764;9.176;2023-02-24T05:11:13;97552.00;;;11.49;73.76
550;BME280;20066;48.764;9.176;2023-02-24T05:13:43;97541.22;;;11.79;71.92
550;BME280;20066;48.764;9.176;2023-02-24T05:16:14;97552.22;;;12.15;69.86
550;BME280;20066;48.764;9.176;2023-02-24T05:18:42;97541.16;;;11.83;70.53
550;BME280;20066;48.764;9.176;2023-02-24T05:21:14;97535.75;;;11.26;72.56
550;BME280;20066;48.764;9.176;2023-02-24T05:23:59;97530.31;;;10.61;76.66
550;BME280;20066;48.764;9.176;2023-02-24T05:26:35;97535.09;;;11.18;75.87
550;BME280;20066;48.764;9.176;2023-02-24T05:29:05;97530.50;;;12.03;70.84
550;BME280;20066;48.764;9.176;2023-02-24T05:31:33;97523.34;;;12.16;69.39
550;BME280;20066;48.764;9.176;2023-02-24T05:34:04;97521.75;;;11.68;71.02
550;BME280;20066;48.764;9.176;2023-02-24T05:36:36;97524.75;;;11.74;70.89
550;BME280;20066;48.764;9.176;2023-02-24T05:39:06;97516.66;;;12.47;68.16
550;BME280;20066;48.764;9.176;2023-02-24T05:41:38;97507.03;;;12.23;67.72
550;BME280;20066;48.764;9.176;2023-02-24T05:44:10;97514.78;;;12.21;67.75
550;BME280;20066;48.764;9.176;2023-02-24T05:46:40;97506.53;;;11.54;71.03
550;BME280;20066;48.764;9.176;2023-02-24T05:49:12;97497.88;;;11.70;70.76
550;BME280;20066;48.764;9.176;2023-02-24T05:51:41;97498.75;;;11.64;70.13
550;BME280;20066;48.764;9.176;2023-02-24T05:54:22;97494.47;;;12.36;67.75
550;BME280;20066;48.764;9.176;2023-02-24T05:56:52;97487.50;;;11.69;69.70
550;BME280;20066;48.764;9.176;2023-02-24T05:59:22;97495.59;;;12.38;67.95
550;BME280;20066;48.764;9.176;2023-02-24T06:01:50;97490.88;;;12.66;66.78
550;BME280;20066;48.764;9.176;2023-02-24T06:04:19;97491.59;;;11.77;70.36
550;BME280;20066;48.764;9.176;2023-02-24T06:07:06;97483.22;;;11.71;71.12
550;BME280;20066;48.764;9.176;2023-02-24T06:09:39;97491.47;;;12.11;67.58
550;BME280;20066;48.764;9.176;2023-02-24T06:12:10;97492.38;;;11.77;69.45
550;BME280;20066;48.764;9.176;2023-02-24T06:14:40;97488.03;;;12.30;68.34
550;BME280;20066;48.764;9.176;2023-02-24T06:17:08;97481.31;;;12.18;68.60
550;BME280;20066;48.764;9.176;2023-02-24T06:19:36;97485.91;;;11.14;71.67
550;BME280;20066;48.764;9.176;2023-02-24T06:22:08;97487.25;;;11.29;72.37
550;BME280;20066;48.764;9.176;2023-02-24T06:24:38;97482.13;;;11.92;69.34
550;BME280;20066;48.764;9.176;2023-02-24T06:27:11;97484.13;;;11.88;70.24
550;BME280;20066;48.764;9.176;2023-02-24T06:29:44;97482.09;;;12.19;68.16
550;BME280;20066;48.764;9.176;2023-02-24T06:32:12;97484.28;;;11.77;69.65
550;BME280;20066;48.764;9.176;2023-02-24T06:34:40;97485.56;;;12.19;69.19
550;BME280;20066;48.764;9.176;2023-02-24T06:37:11;97483.78;;;12.32;66.61
550;BME280;20066;48.764;9.176;2023-02-24T06:39:40;97482.31;;;11.81;69.43
550;BME280;20066;48.764;9.176;2023-02-24T06:42:11;97481.75;;;11.67;69.49
550;BME280;20066;48.764;9.176;2023-02-24T06:44:40;97481.34;;;11.68;70.23
550;BME280;20066;48.764;9.176;2023-02-24T06:47:11;97484.50;;;11.59;71.10
550;BME280;20066;48.764;9.176;2023-02-24T06:49:39;97480.50;;;11.44;72.03
550;BME280;20066;48.764;9.176;2023-02-24T06:52:08;97477.97;;;11.87;69.63
550;BME280;20066;48.764;9.176;2023-02-24T06:54:36;97471.69;;;11.71;71.58
550;BME280;20066;48.764;9.176;2023-02-24T06:57:04;97469.63;;;11.51;71.19
550;BME280;20066;48.764;9.176;2023-02-24T06:59:36;97466.66;;;11.73;71.43
550;BME280;20066;48.764;9.176;2023-02-24T07:02:05;97465.91;;;12.19;69.15
550;BME280;20066;48.764;9.176;2023-02-24T07:04:33;97469.25;;;12.03;68.91
550;BME280;20066;48.764;9.176;2023-02-24T07:07:09;97467.00;;;11.75;70.87
550;BME280;20066;48.764;9.176;2023-02-24T07:09:40;97472.34;;;12.25;67.97
550;BME280;20066;48.764;9.176;2023-02-24T07:12:09;97466.44;;;12.10;67.77
550;BME280;20066;48.764;9.176;2023-02-24T07:14:39;97469.34;;;11.73;70.00
550;BME280;20066;48.764;9.176;2023-02-24T07:17:07;97471.63;;;11.97;70.21
550;BME280;20066;48.764;9.176;2023-02-24T07:19:36;97461.72;;;11.41;70.49
550;BME280;20066;48.764;9.176;2023-02-24T07:22:03;97458.56;;;12.43;67.34
550;BME280;20066;48.764;9.176;2023-02-24T07:24:33;97469.28;;;12.86;66.38
550;BME280;20066;48.764;9.176;2023-02-24T07:27:04;97462.72;;;12.87;65.15
550;BME280;20066;48.764;9.176;2023-02-24T07:29:33;97464.66;;;12.23;68.27
550;BME280;20066;48.764;9.176;2023-02-24T07:32:06;97467.41;;;12.63;67.78
550;BME280;20066;48.764;9.176;2023-02-24T07:34:35;97456.81;;;12.09;70.54
550;BME280;20066;48.764;9.176;2023-02-24T07:37:06;97462.44;;;12.42;68.34
550;BME280;20066;48.764;9.176;2023-02-24T07:39:34;97445.13;;;11.73;71.32
550;BME280;20066;48.764;9.176;2023-02-24T07:42:05;97452.72;;;12.01;71.38
550;BME280;20066;48.764;9.176;2023-02-24T07:44:33;97458.03;;;12.51;69.59
550;BME280;20066;48.764;9.176;2023-02-24T07:47:01;97456.41;;;12.54;68.59
550;BME280;20066;48.764;9.176;2023-02-24T07:49:35;97456.88;;;12.06;71.26
550;BME280;20066;48.764;9.176;2023-02-24T07:52:04;97453.25;;;11.69;71.75
550;BME280;20066;48.764;9.176;2023-02-24T07:54:33;97457.41;;;11.74;71.80
550;BME280;20066;48.764;9.176;2023-02-24T07:57:01;97454.88;;;12.33;69.95
550;BME280;20066;48.764;9.176;2023-02-24T07:59:31;97452.19;;;11.63;71.49
550;BME280;20066;48.764;9.176;2023-02-24T08:01:59;97447.13;;;11.38;72.49
550;BME280;20066;48.764;9.176;2023-02-24T08:04:31;97448.56;;;11.19;74.31
550;BME280;20066;48.764;9.176;2023-02-24T08:07:00;97446.59;;;10.93;75.08
550;BME280;20066;48.764;9.176;2023-02-24T08:09:31;97440.16;;;11.14;74.10
550;BME280;20066;48.764;9.176;2023-02-24T08:12:34;97441.69;;;11.15;74.59
550;BME280;20066;48.764;9.176;2023-02-24T08:15:09;97437.53;;;11.37;74.00
550;BME280;20066;48.764;9.176;2023-02-24T08:17:43;97441.53;;;11.52;72.33
550;BME280;20066;48.764;9.176;2023-02-24T08:20:13;97443.31;;;11.09;74.07
550;BME280;20066;48.764;9.176;2023-02-24T08:22:53;97433.53;;;11.49;74.76
550;BME280;20066;48.764;9.176;2023-02-24T08:25:23;97436.09;;;11.29;73.52
550;BME280;20066;48.764;9.176;2023-02-24T08:27:52;97434.97;;;10.69;76.67
550;BME280;20066;48.764;9.176;2023-02-24T08:30:37;97424.25;;;10.28;79.05
550;BME280;20066;48.764;9.176;2023-02-24T08:33:07;97423.44;;;11.53;74.41
550;BME280;20066;48.764;9.176;2023-02-24T08:35:38;97420.72;;;11.03;74.88
550;BME280;20066;48.764;9.176;2023-02-24T08:38:14;97419.75;;;12.36;71.79
550;BME280;20066;48.764;9.176;2023-02-24T08:40:44;97411.44;;;14.36;64.09
550;BME280;20066;48.764;9.176;2023-02-24T08:43:21;97410.25;;;14.37;60.81
550;BME280;20066;48.764;9.176;2023-02-24T08:46:01;97413.41;;;15.91;57.68
550;BME280;20066;48.764;9.176;2023-02-24T08:48:31;97406.09;;;16.01;54.79
550;BME280;20066;48.764;9.176;2023-02-24T08:51:08;97398.84;;;14.58;59.56
550;BME280;20066;48.764;9.176;2023-02-24T08:53:38;97400.34;;;13.37;63.28
550;BME280;20066;48.764;9.176;2023-02-24T08:56:08;97399.78;;;13.09;65.00
550;BME280;20066;48.764;9.176;2023-02-24T08:58:39;97401.63;;;13.48;62.92
550;BME280;20066;48.764;9.176;2023-02-24T09:01:15;97388.50;;;13.96;60.42
550;BME280;20066;48.764;9.176;2023-02-24T09:03:52;97397.75;;;12.38;65.88
550;BME280;20066;48.764;9.176;2023-02-24T09:06:32;97387.59;;;12.26;67.04
550;BME280;20066;48.764;9.176;2023-02-24T09:09:03;97384.28;;;13.13;64.24
550;BME280;20066;48.764;9.176;2023-02-24T09:11:49;97375.38;;;11.98;65.50
550;BME280;20066;48.764;9.176;2023-02-24T09:14:24;97384.81;;;12.29;66.67
550;BME280;20066;48.764;9.176;2023-02-24T09:16:57;97385.84;;;12.75;64.10
550;BME280;20066;48.764;9.176;2023-02-24T09:19:38;97386.75;;;12.29;65.46
550;BME280;20066;48.764;9.176;2023-02-24T09:22:25;97383.81;;;13.35;62.54
550;BME280;20066;48.764;9.176;2023-02-24T09:25:10;97377.97;;;13.69;61.50
550;BME280;20066;48.764;9.176;2023-02-24T09:27:52;97370.78;;;13.46;61.98
550;BME280;20066;48.764;9.176;2023-02-24T09:30:25;97370.34;;;13.80;61.01
550;BME280;20066;48.764;9.176;2023-02-24T09:33:19;97368.94;;;13.43;60.48
550;BME280;20066;48.764;9.176;2023-02-24T09:35:57;97371.13;;;13.48;60.16
550;BME280;20066;48.764;9.176;2023-02-24T09:38:37;97376.03;;;13.53;59.82
550;BME280;20066;48.764;9.176;2023-02-24T09:41:28;97362.69;;;13.30;59.71
550;BME280;20066;48.764;9.176;2023-02-24T09:44:02;97365.38;;;13.13;60.69
550;BME280;20066;48.764;9.176;2023-02-24T09:46:38;97358.31;;;13.20;61.47
550;BME280;20066;48.764;9.176;2023-02-24T09:49:13;97354.88;;;12.99;61.81
550;BME280;20066;48.764;9.176;2023-02-24T09:51:43;97355.00;;;13.44;61.36
550;BME280;20066;48.764;9.176;2023-02-24T09:54:14;97353.69;;;12.64;65.06
550;BME280;20066;48.764;9.176;2023-02-24T09:56:50;97358.03;;;13.46;61.25
550;BME280;20066;48.764;9.176;2023-02-24T09:59:42;97351.81;;;13.66;60.44
550;BME280;20066;48.764;9.176;2023-02-24T10:02:38;97346.56;;;13.59;60.35
550;BME280;20066;48.764;9.176;2023-02-24T10:05:20;97349.16;;;12.77;62.50
550;BME280;20066;48.764;9.176;2023-02-24T10:07:53;97334.25;;;13.25;60.19
550;BME280;20066;48.764;9.176;2023-02-24T10:10:24;97343.16;;;13.87;58.84
550;BME280;20066;48.764;9.176;2023-02-24T10:12:59;97335.06;;;13.71;58.35
550;BME280;20066;48.764;9.176;2023-02-24T10:15:40;97335.69;;;13.91;58.96
550;BME280;20066;48.764;9.176;2023-02-24T10:18:31;97337.59;;;13.78;58.28
550;BME280;20066;48.764;9.176;2023-02-24T10:21:10;97332.63;;;13.60;56.41
550;BME280;20066;48.764;9.176;2023-02-24T10:23:59;97332.91;;;14.23;55.93
550;BME280;20066;48.764;9.176;2023-02-24T10:26:35;97329.81;;;12.63;62.18
550;BME280;20066;48.764;9.176;2023-02-24T10:29:33;97328.34;;;12.03;65.53
550;BME280;20066;48.764;9.176;2023-02-24T10:32:17;97329.78;;;12.83;64.17
550;BME280;20066;48.764;9.176;2023-02-24T10:34:49;97340.59;;;12.27;66.05
550;BME280;20066;48.764;9.176;2023-02-24T10:37:19;97329.25;;;12.35;65.38
550;BME280;20066;48.764;9.176;2023-02-24T10:39:56;97333.41;;;12.20;66.06
550;BME280;20066;48.764;9.176;2023-02-24T10:42:26;97328.03;;;12.56;64.25
550;BME280;20066;48.764;9.176;2023-02-24T10:45:11;97316.84;;;12.58;64.19
550;BME280;20066;48.764;9.176;2023-02-24T10:47:49;97322.81;;;12.29;64.21
550;BME280;20066;48.764;9.176;2023-02-24T10:50:25;97312.03;;;13.01;62.45
550;BME280;20066;48.764;9.176;2023-02-24T10:53:02;97314.75;;;12.65;64.06
550;BME280;20066;48.764;9.176;2023-02-24T10:56:02;97312.41;;;13.20;60.38
550;BME280;20066;48.764;9.176;2023-02-24T10:58:59;97307.44;;;12.82;62.83
550;BME280;20066;48.764;9.176;2023-02-24T11:01:52;97306.41;;;13.89;59.01
550;BME280;20066;48.764;9.176;2023-02-24T11:04:32;97303.13;;;13.04;61.31
550;BME280;20066;48.764;9.176;2023-02-24T11:07:19;97293.81;;;11.74;65.73
550;BME280;20066;48.764;9.176;2023-02-24T11:10:12;97295.16;;;11.86;65.85
550;BME280;20066;48.764;9.176;2023-02-24T11:12:44;97293.72;;;12.01;67.11
550;BME280;20066;48.764;9.176;2023-02-24T11:15:47;97284.59;;;11.29;70.15
550;BME280;20066;48.764;9.176;2023-02-24T11:18:45;97280.94;;;11.85;66.51
550;BME280;20066;48.764;9.176;2023-02-24T11:21:16;97285.78;;;11.94;66.73
550;BME280;20066;48.764;9.176;2023-02-24T11:23:45;97277.53;;;12.21;66.13
550;BME280;20066;48.764;9.176;2023-02-24T11:26:17;97267.78;;;12.63;63.23
550;BME280;20066;48.764;9.176;2023-02-24T11:28:59;97262.22;;;12.70;64.92
550;BME280;20066;48.764;9.176;2023-02-24T11:31:43;97256.13;;;13.02;62.30
550;BME280;20066;48.764;9.176;2023-02-24T11:34:22;97256.81;;;12.90;63.15
550;BME280;20066;48.764;9.176;2023-02-24T11:37:01;97256.47;;;13.20;60.93
550;BME280;20066;48.764;9.176;2023-02-24T11:39:47;97247.56;;;12.87;63.17
550;BME280;20066;48.764;9.176;2023-02-24T11:42:20;97236.41;;;12.53;63.33
550;BME280;20066;48.764;9.176;2023-02-24T11:44:53;97236.59;;;13.43;60.89
550;BME280;20066;48.764;9.176;2023-02-24T11:47:28;97228.19;;;13.53;60.28
550;BME280;20066;48.764;9.176;2023-02-24T11:50:08;97224.00;;;13.94;58.27
550;BME280;20066;48.764;9.176;2023-02-24T11:52:42;97220.13;;;11.84;66.25
550;BME280;20066;48.764;9.176;2023-02-24T11:55:20;97203.91;;;11.88;64.92
550;BME280;20066;48.764;9.176;2023-02-24T11:57:55;97191.41;;;12.98;61.57
550;BME280;20066;48.764;9.176;2023-02-24T12:00:30;97182.63;;;12.78;63.13
550;BME280;20066;48.764;9.176;2023-02-24T12:03:02;97180.84;;;13.20;59.94
550;BME280;20066;48.764;9.176;2023-02-24T12:05:39;97175.66;;;13.55;59.47
550;BME280;20066;48.764;9.176;2023-02-24T12:08:12;97167.06;;;14.14;58.29
550;BME280;20066;48.764;9.176;2023-02-24T12:10:46;97162.38;;;13.89;56.95
550;BME280;20066;48.764;9.176;2023-02-24T12:13:20;97158.53;;;13.32;59.57
550;BME280;20066;48.764;9.176;2023-02-24T12:15:56;97157.13;;;13.69;57.98
550;BME280;20066;48.764;9.176;2023-02-24T12:18:31;97153.19;;;12.84;61.10
550;BME280;20066;48.764;9.176;2023-02-24T12:21:04;97149.91;;;13.91;56.82
550;BME280;20066;48.764;9.176;2023-02-24T12:23:35;97146.13;;;15.47;52.85
550;BME280;20066;48.764;9.176;2023-02-24T12:26:15;97147.56;;;15.82;51.25
550;BME280;20066;48.764;9.176;2023-02-24T12:28:56;97142.69;;;15.12;51.58
550;BME280;20066;48.764;9.176;2023-02-24T12:31:36;97135.41;;;15.21;51.44
550;BME280;20066;48.764;9.176;2023-02-24T12:34:11;97131.25;;;15.29;51.57
550;BME280;20066;48.764;9.176;2023-02-24T12:37:00;97116.75;;;15.23;51.53
550;BME280;20066;48.764;9.176;2023-02-24T12:39:39;97105.81;;;14.07;53.25
550;BME280;20066;48.764;9.176;2023-02-24T12:42:15;97104.50;;;14.50;52.08
550;BME280;20066;48.764;9.176;2023-02-24T12:44:53;97102.88;;;13.89;54.58
550;BME280;20066;48.764;9.176;2023-02-24T12:47:30;97099.22;;;13.96;54.50
550;BME280;20066;48.764;9.176;2023-02-24T12:50:15;97100.00;;;14.21;52.19
550;BME280;20066;48.764;9.176;2023-02-24T12:52:53;97096.72;;;14.52;51.52
550;BME280;20066;48.764;9.176;2023-02-24T12:55:30;97096.06;;;14.48;50.76
550;BME280;20066;48.764;9.176;2023-02-24T12:58:07;97093.25;;;13.88;52.18
550;BME280;20066;48.764;9.176;2023-02-24T13:00:44;97088.56;;;13.50;53.94
550;BME280;20066;48.764;9.176;2023-02-24T13:03:26;97084.75;;;13.06;53.22
550;BME280;20066;48.764;9.176;2023-02-24T13:06:03;97080.94;;;14.00;52.06
550;BME280;20066;48.764;9.176;2023-02-24T13:08:41;97083.00;;;13.96;51.88
550;BME280;20066;48.764;9.176;2023-02-24T13:11:16;97077.09;;;13.46;53.37
550;BME280;20066;48.764;9.176;2023-02-24T13:13:51;97075.25;;;14.57;50.23
550;BME280;20066;48.764;9.176;2023-02-24T13:16:27;97078.06;;;15.45;48.70
550;BME280;20066;48.764;9.176;2023-02-24T13:19:06;97069.50;;;15.24;48.13
550;BME280;20066;48.764;9.176;2023-02-24T13:21:54;97068.06;;;15.11;48.49
550;BME280;20066;48.764;9.176;2023-02-24T13:24:24;97060.56;;;14.46;50.44
550;BME280;20066;48.764;9.176;2023-02-24T13:27:03;97055.09;;;14.93;49.55
550;BME280;20066;48.764;9.176;2023-02-24T13:29:42;97048.16;;;14.92;49.09
550;BME280;20066;48.764;9.176;2023-02-24T13:32:23;97044.72;;;14.57;50.44
550;BME280;20066;48.764;9.176;2023-02-24T13:34:52;97051.03;;;15.32;48.96
550;BME280;20066;48.764;9.176;2023-02-24T13:37:27;97044.03;;;14.31;51.47
550;BME280;20066;48.764;9.176;2023-02-24T13:39:56;97041.16;;;14.13;51.79
550;BME280;20066;48.764;9.176;2023-02-24T13:42:26;97034.38;;;14.43;50.75
550;BME280;20066;48.764;9.176;2023-02-24T13:45:03;97031.34;;;14.41;51.51
550;BME280;20066;48.764;9.176;2023-02-24T13:47:53;97017.25;;;13.86;53.23
550;BME280;20066;48.764;9.176;2023-02-24T13:50:32;97016.31;;;14.40;52.17
550;BME280;20066;48.764;9.176;2023-02-24T13:53:29;97010.81;;;14.43;52.32
550;BME280;20066;48.764;9.176;2023-02-24T13:56:24;97005.97;;;14.25;52.36
550;BME280;20066;48.764;9.176;2023-02-24T13:59:16;96998.09;;;13.68;53.90
550;BME280;20066;48.764;9.176;2023-02-24T14:01:48;96994.63;;;13.93;52.64
550;BME280;20066;48.764;9.176;2023-02-24T14:04:20;96989.47;;;13.60;53.92
550;BME280;20066;48.764;9.176;2023-02-24T14:06:55;96990.41;;;14.17;52.80
550;BME280;20066;48.764;9.176;2023-02-24T14:09:27;96997.28;;;14.31;52.49